Авиационная погода в Аулие-Ата

СКИДКИ НА СМАРТФОНЫ!

Регион: 
Погода METAR: 
UADD 091430Z 33004MPS 9999 SCT050 BKN100 27/05 Q1008 NOSIG RMK QFE699/0932
Время наблюдения
2022-08-09T14:30:00Z
Температура C
27.0
Точка росы
5.0
Направление ветра
330
Скорость ветра (узлы)
8
Метео видимость
6.21
Облачность
SCT
BKN
Нижняя граница облачности (футы)
5000
10000
Явления погоды
Условия полета
VFR
Аэропорт подробнее: 
SCT – разбросанная отдельная облачность; BKN – значительная (рассеянная, разорванная) облачность;

Скидки на навигаторы!